sensor_id;sensor_type;location;lat;lon;timestamp;temperature;humidity
6146;DHT22;3104;50.348;7.620;2022-08-19T00:00:05;20.00;99.90
6146;DHT22;3104;50.348;7.620;2022-08-19T00:02:32;20.10;99.90
6146;DHT22;3104;50.348;7.620;2022-08-19T00:04:58;20.10;99.90
6146;DHT22;3104;50.348;7.620;2022-08-19T00:07:23;20.10;99.90
6146;DHT22;3104;50.348;7.620;2022-08-19T00:09:49;20.10;99.90
6146;DHT22;3104;50.348;7.620;2022-08-19T00:12:14;20.20;99.90
6146;DHT22;3104;50.348;7.620;2022-08-19T00:14:41;20.20;99.90
6146;DHT22;3104;50.348;7.620;2022-08-19T00:17:07;20.20;99.90
6146;DHT22;3104;50.348;7.620;2022-08-19T00:19:35;20.20;99.90
6146;DHT22;3104;50.348;7.620;2022-08-19T00:22:00;20.20;99.90
6146;DHT22;3104;50.348;7.620;2022-08-19T00:24:28;20.10;99.90
6146;DHT22;3104;50.348;7.620;2022-08-19T00:26:54;20.10;99.90
6146;DHT22;3104;50.348;7.620;2022-08-19T00:29:22;20.10;99.90
6146;DHT22;3104;50.348;7.620;2022-08-19T00:31:48;20.00;99.90
6146;DHT22;3104;50.348;7.620;2022-08-19T00:34:14;20.00;99.90
6146;DHT22;3104;50.348;7.620;2022-08-19T00:36:41;20.00;99.90
6146;DHT22;3104;50.348;7.620;2022-08-19T00:39:08;20.00;99.90
6146;DHT22;3104;50.348;7.620;2022-08-19T00:41:34;20.00;99.90
6146;DHT22;3104;50.348;7.620;2022-08-19T00:44:09;19.90;99.90
6146;DHT22;3104;50.348;7.620;2022-08-19T00:46:36;20.00;99.90
6146;DHT22;3104;50.348;7.620;2022-08-19T00:49:09;19.90;99.90
6146;DHT22;3104;50.348;7.620;2022-08-19T00:51:35;20.00;99.90
6146;DHT22;3104;50.348;7.620;2022-08-19T00:54:02;20.10;99.90
6146;DHT22;3104;50.348;7.620;2022-08-19T00:56:28;19.90;99.90
6146;DHT22;3104;50.348;7.620;2022-08-19T00:58:56;19.80;99.90
6146;DHT22;3104;50.348;7.620;2022-08-19T01:01:23;19.80;99.90
6146;DHT22;3104;50.348;7.620;2022-08-19T01:03:49;19.80;99.90
6146;DHT22;3104;50.348;7.620;2022-08-19T01:06:15;19.80;99.90
6146;DHT22;3104;50.348;7.620;2022-08-19T01:08:41;19.70;99.90
6146;DHT22;3104;50.348;7.620;2022-08-19T01:11:07;19.70;99.90
6146;DHT22;3104;50.348;7.620;2022-08-19T01:13:34;19.70;99.90
6146;DHT22;3104;50.348;7.620;2022-08-19T01:16:07;19.70;99.90
6146;DHT22;3104;50.348;7.620;2022-08-19T01:18:38;19.60;99.90
6146;DHT22;3104;50.348;7.620;2022-08-19T01:21:09;19.60;99.90
6146;DHT22;3104;50.348;7.620;2022-08-19T01:23:36;19.60;99.90
6146;DHT22;3104;50.348;7.620;2022-08-19T01:26:20;19.60;99.90
6146;DHT22;3104;50.348;7.620;2022-08-19T01:28:49;19.60;99.90
6146;DHT22;3104;50.348;7.620;2022-08-19T01:31:20;19.50;99.90
6146;DHT22;3104;50.348;7.620;2022-08-19T01:33:50;19.40;99.90
6146;DHT22;3104;50.348;7.620;2022-08-19T01:36:26;19.40;99.90
6146;DHT22;3104;50.348;7.620;2022-08-19T01:38:52;19.40;99.90
6146;DHT22;3104;50.348;7.620;2022-08-19T01:41:18;19.40;99.90
6146;DHT22;3104;50.348;7.620;2022-08-19T01:43:44;19.40;99.90
6146;DHT22;3104;50.348;7.620;2022-08-19T01:46:10;19.30;99.90
6146;DHT22;3104;50.348;7.620;2022-08-19T01:48:39;19.30;99.90
6146;DHT22;3104;50.348;7.620;2022-08-19T01:51:06;19.20;99.90
6146;DHT22;3104;50.348;7.620;2022-08-19T01:53:32;19.20;99.90
6146;DHT22;3104;50.348;7.620;2022-08-19T01:55:58;19.20;99.90
6146;DHT22;3104;50.348;7.620;2022-08-19T01:58:49;19.10;99.90
6146;DHT22;3104;50.348;7.620;2022-08-19T02:01:13;19.10;99.90
6146;DHT22;3104;50.348;7.620;2022-08-19T02:03:39;19.10;99.90
6146;DHT22;3104;50.348;7.620;2022-08-19T02:06:05;19.10;99.90
6146;DHT22;3104;50.348;7.620;2022-08-19T02:08:32;19.20;99.90
6146;DHT22;3104;50.348;7.620;2022-08-19T02:10:59;19.20;99.90
6146;DHT22;3104;50.348;7.620;2022-08-19T02:13:25;19.10;99.90
6146;DHT22;3104;50.348;7.620;2022-08-19T02:15:51;19.10;99.90
6146;DHT22;3104;50.348;7.620;2022-08-19T02:18:17;19.10;99.90
6146;DHT22;3104;50.348;7.620;2022-08-19T02:20:43;19.20;99.90
6146;DHT22;3104;50.348;7.620;2022-08-19T02:23:11;19.30;99.90
6146;DHT22;3104;50.348;7.620;2022-08-19T02:25:37;19.40;99.90
6146;DHT22;3104;50.348;7.620;2022-08-19T02:28:03;19.40;99.90
6146;DHT22;3104;50.348;7.620;2022-08-19T02:30:29;19.30;99.90
6146;DHT22;3104;50.348;7.620;2022-08-19T02:32:55;19.20;99.90
6146;DHT22;3104;50.348;7.620;2022-08-19T02:35:21;19.20;99.90
6146;DHT22;3104;50.348;7.620;2022-08-19T02:37:47;19.10;99.90
6146;DHT22;3104;50.348;7.620;2022-08-19T02:40:33;19.10;99.90
6146;DHT22;3104;50.348;7.620;2022-08-19T02:43:00;18.90;99.90
6146;DHT22;3104;50.348;7.620;2022-08-19T02:45:26;19.10;99.90
6146;DHT22;3104;50.348;7.620;2022-08-19T02:47:52;19.10;99.90
6146;DHT22;3104;50.348;7.620;2022-08-19T02:50:18;19.10;99.90
6146;DHT22;3104;50.348;7.620;2022-08-19T02:52:44;19.00;99.90
6146;DHT22;3104;50.348;7.620;2022-08-19T02:55:10;18.90;99.90
6146;DHT22;3104;50.348;7.620;2022-08-19T02:57:36;18.80;99.90
6146;DHT22;3104;50.348;7.620;2022-08-19T03:00:05;18.80;99.90
6146;DHT22;3104;50.348;7.620;2022-08-19T03:02:31;18.70;99.90
6146;DHT22;3104;50.348;7.620;2022-08-19T03:04:57;18.60;99.90
6146;DHT22;3104;50.348;7.620;2022-08-19T03:07:22;18.50;99.90
6146;DHT22;3104;50.348;7.620;2022-08-19T03:09:48;18.70;99.90
6146;DHT22;3104;50.348;7.620;2022-08-19T03:12:14;18.90;99.90
6146;DHT22;3104;50.348;7.620;2022-08-19T03:14:39;19.00;99.90
6146;DHT22;3104;50.348;7.620;2022-08-19T03:17:05;18.80;99.90
6146;DHT22;3104;50.348;7.620;2022-08-19T03:19:31;18.60;99.90
6146;DHT22;3104;50.348;7.620;2022-08-19T03:21:57;18.50;99.90
6146;DHT22;3104;50.348;7.620;2022-08-19T03:24:23;18.40;99.90
6146;DHT22;3104;50.348;7.620;2022-08-19T03:26:51;18.40;99.90
6146;DHT22;3104;50.348;7.620;2022-08-19T03:29:18;18.40;99.90
6146;DHT22;3104;50.348;7.620;2022-08-19T03:31:45;18.30;99.90
6146;DHT22;3104;50.348;7.620;2022-08-19T03:34:13;18.20;99.90
6146;DHT22;3104;50.348;7.620;2022-08-19T03:36:39;18.20;99.90
6146;DHT22;3104;50.348;7.620;2022-08-19T03:39:05;18.20;99.90
6146;DHT22;3104;50.348;7.620;2022-08-19T03:41:35;18.40;99.90
6146;DHT22;3104;50.348;7.620;2022-08-19T03:44:02;18.40;99.90
6146;DHT22;3104;50.348;7.620;2022-08-19T03:46:31;18.40;99.90
6146;DHT22;3104;50.348;7.620;2022-08-19T03:48:59;18.60;99.90
6146;DHT22;3104;50.348;7.620;2022-08-19T03:51:34;18.80;99.90
6146;DHT22;3104;50.348;7.620;2022-08-19T03:54:03;18.70;99.90
6146;DHT22;3104;50.348;7.620;2022-08-19T03:56:30;18.50;99.90
6146;DHT22;3104;50.348;7.620;2022-08-19T03:58:57;18.50;99.90
6146;DHT22;3104;50.348;7.620;2022-08-19T04:01:24;18.50;99.90
6146;DHT22;3104;50.348;7.620;2022-08-19T04:03:52;18.50;99.90
6146;DHT22;3104;50.348;7.620;2022-08-19T04:06:25;18.40;99.90
6146;DHT22;3104;50.348;7.620;2022-08-19T04:08:52;18.30;99.90
6146;DHT22;3104;50.348;7.620;2022-08-19T04:11:23;18.20;99.90
6146;DHT22;3104;50.348;7.620;2022-08-19T04:13:50;18.20;99.90
6146;DHT22;3104;50.348;7.620;2022-08-19T04:16:21;18.20;99.90
6146;DHT22;3104;50.348;7.620;2022-08-19T04:18:48;18.10;99.90
6146;DHT22;3104;50.348;7.620;2022-08-19T04:21:24;18.20;99.90
6146;DHT22;3104;50.348;7.620;2022-08-19T04:23:50;18.20;99.90
6146;DHT22;3104;50.348;7.620;2022-08-19T04:26:28;18.20;99.90
6146;DHT22;3104;50.348;7.620;2022-08-19T04:28:54;18.20;99.90
6146;DHT22;3104;50.348;7.620;2022-08-19T04:31:27;18.20;99.90
6146;DHT22;3104;50.348;7.620;2022-08-19T04:33:54;18.20;99.90
6146;DHT22;3104;50.348;7.620;2022-08-19T04:36:27;18.20;99.90
6146;DHT22;3104;50.348;7.620;2022-08-19T04:38:55;18.20;99.90
6146;DHT22;3104;50.348;7.620;2022-08-19T04:41:21;18.20;99.90
6146;DHT22;3104;50.348;7.620;2022-08-19T04:44:05;18.30;99.90
6146;DHT22;3104;50.348;7.620;2022-08-19T04:46:32;18.20;99.90
6146;DHT22;3104;50.348;7.620;2022-08-19T04:48:59;18.20;99.90
6146;DHT22;3104;50.348;7.620;2022-08-19T04:51:25;18.10;99.90
6146;DHT22;3104;50.348;7.620;2022-08-19T04:53:51;18.10;99.90
6146;DHT22;3104;50.348;7.620;2022-08-19T04:56:19;18.10;99.90
6146;DHT22;3104;50.348;7.620;2022-08-19T04:58:46;18.10;99.90
6146;DHT22;3104;50.348;7.620;2022-08-19T05:01:13;18.00;99.90
6146;DHT22;3104;50.348;7.620;2022-08-19T05:03:39;18.00;99.90
6146;DHT22;3104;50.348;7.620;2022-08-19T05:06:10;18.00;99.90
6146;DHT22;3104;50.348;7.620;2022-08-19T05:08:38;18.10;99.90
6146;DHT22;3104;50.348;7.620;2022-08-19T05:11:10;18.10;99.90
6146;DHT22;3104;50.348;7.620;2022-08-19T05:13:37;18.20;99.90
6146;DHT22;3104;50.348;7.620;2022-08-19T05:16:03;18.20;99.90
6146;DHT22;3104;50.348;7.620;2022-08-19T05:18:28;18.30;99.90
6146;DHT22;3104;50.348;7.620;2022-08-19T05:21:16;18.40;99.90
6146;DHT22;3104;50.348;7.620;2022-08-19T05:24:01;18.40;99.90
6146;DHT22;3104;50.348;7.620;2022-08-19T05:26:27;18.40;99.90
6146;DHT22;3104;50.348;7.620;2022-08-19T05:28:53;18.40;99.90
6146;DHT22;3104;50.348;7.620;2022-08-19T05:31:20;18.60;99.90
6146;DHT22;3104;50.348;7.620;2022-08-19T05:33:46;18.60;99.90
6146;DHT22;3104;50.348;7.620;2022-08-19T05:36:21;18.60;99.90
6146;DHT22;3104;50.348;7.620;2022-08-19T05:38:47;18.60;99.90
6146;DHT22;3104;50.348;7.620;2022-08-19T05:41:14;18.60;99.90
6146;DHT22;3104;50.348;7.620;2022-08-19T05:43:41;18.70;99.90
6146;DHT22;3104;50.348;7.620;2022-08-19T05:46:07;18.60;99.90
6146;DHT22;3104;50.348;7.620;2022-08-19T05:48:34;18.60;99.90
6146;DHT22;3104;50.348;7.620;2022-08-19T05:51:07;18.60;99.90
6146;DHT22;3104;50.348;7.620;2022-08-19T05:53:34;18.50;99.90
6146;DHT22;3104;50.348;7.620;2022-08-19T05:56:05;18.50;99.90
6146;DHT22;3104;50.348;7.620;2022-08-19T05:58:31;18.60;99.90
6146;DHT22;3104;50.348;7.620;2022-08-19T06:00:58;18.60;99.90
6146;DHT22;3104;50.348;7.620;2022-08-19T06:03:32;18.60;99.90
6146;DHT22;3104;50.348;7.620;2022-08-19T06:05:58;18.60;99.90
6146;DHT22;3104;50.348;7.620;2022-08-19T06:08:25;18.70;99.90
6146;DHT22;3104;50.348;7.620;2022-08-19T06:10:52;18.80;99.90
6146;DHT22;3104;50.348;7.620;2022-08-19T06:13:18;18.90;99.90
6146;DHT22;3104;50.348;7.620;2022-08-19T06:15:45;18.90;99.90
6146;DHT22;3104;50.348;7.620;2022-08-19T06:18:12;19.10;99.90
6146;DHT22;3104;50.348;7.620;2022-08-19T06:20:37;19.10;99.90
6146;DHT22;3104;50.348;7.620;2022-08-19T06:23:03;19.20;99.90
6146;DHT22;3104;50.348;7.620;2022-08-19T06:25:29;19.20;99.90
6146;DHT22;3104;50.348;7.620;2022-08-19T06:27:55;19.30;99.90
6146;DHT22;3104;50.348;7.620;2022-08-19T06:30:20;19.20;99.90
6146;DHT22;3104;50.348;7.620;2022-08-19T06:32:46;19.30;99.90
6146;DHT22;3104;50.348;7.620;2022-08-19T06:35:12;19.40;99.90
6146;DHT22;3104;50.348;7.620;2022-08-19T06:37:40;19.40;99.90
6146;DHT22;3104;50.348;7.620;2022-08-19T06:40:06;19.50;99.90
6146;DHT22;3104;50.348;7.620;2022-08-19T06:42:34;19.60;99.90
6146;DHT22;3104;50.348;7.620;2022-08-19T06:45:00;19.60;99.90
6146;DHT22;3104;50.348;7.620;2022-08-19T06:47:28;19.60;99.90
6146;DHT22;3104;50.348;7.620;2022-08-19T06:49:58;19.60;99.90
6146;DHT22;3104;50.348;7.620;2022-08-19T06:52:31;19.70;99.90
6146;DHT22;3104;50.348;7.620;2022-08-19T06:54:58;19.70;99.90
6146;DHT22;3104;50.348;7.620;2022-08-19T06:57:25;19.70;99.90
6146;DHT22;3104;50.348;7.620;2022-08-19T06:59:51;19.80;99.90
6146;DHT22;3104;50.348;7.620;2022-08-19T07:02:18;19.70;99.90
6146;DHT22;3104;50.348;7.620;2022-08-19T07:04:45;19.70;99.90
6146;DHT22;3104;50.348;7.620;2022-08-19T07:07:13;19.80;99.90
6146;DHT22;3104;50.348;7.620;2022-08-19T07:09:42;19.90;99.90
6146;DHT22;3104;50.348;7.620;2022-08-19T07:12:13;19.90;99.90
6146;DHT22;3104;50.348;7.620;2022-08-19T07:14:42;19.90;99.90
6146;DHT22;3104;50.348;7.620;2022-08-19T07:17:10;20.10;99.90
6146;DHT22;3104;50.348;7.620;2022-08-19T07:19:37;20.20;99.90
6146;DHT22;3104;50.348;7.620;2022-08-19T07:22:06;20.30;99.90
6146;DHT22;3104;50.348;7.620;2022-08-19T07:24:32;20.40;99.90
6146;DHT22;3104;50.348;7.620;2022-08-19T07:27:00;20.50;99.90
6146;DHT22;3104;50.348;7.620;2022-08-19T07:29:29;20.60;99.90
6146;DHT22;3104;50.348;7.620;2022-08-19T07:31:56;20.60;99.90
6146;DHT22;3104;50.348;7.620;2022-08-19T07:34:24;20.60;99.90
6146;DHT22;3104;50.348;7.620;2022-08-19T07:36:51;20.60;99.90
6146;DHT22;3104;50.348;7.620;2022-08-19T07:39:26;20.70;99.90
6146;DHT22;3104;50.348;7.620;2022-08-19T07:41:53;20.70;99.90
6146;DHT22;3104;50.348;7.620;2022-08-19T07:44:19;20.60;99.90
6146;DHT22;3104;50.348;7.620;2022-08-19T07:46:52;20.60;99.90
6146;DHT22;3104;50.348;7.620;2022-08-19T07:49:18;20.70;99.90
6146;DHT22;3104;50.348;7.620;2022-08-19T07:52:07;20.80;99.90
6146;DHT22;3104;50.348;7.620;2022-08-19T07:54:35;20.80;99.90
6146;DHT22;3104;50.348;7.620;2022-08-19T07:57:02;20.80;99.90
6146;DHT22;3104;50.348;7.620;2022-08-19T07:59:28;20.80;99.90
6146;DHT22;3104;50.348;7.620;2022-08-19T08:01:55;20.90;99.90
6146;DHT22;3104;50.348;7.620;2022-08-19T08:04:21;20.90;99.90
6146;DHT22;3104;50.348;7.620;2022-08-19T08:07:06;21.10;99.90
6146;DHT22;3104;50.348;7.620;2022-08-19T08:09:51;21.10;99.90
6146;DHT22;3104;50.348;7.620;2022-08-19T08:12:26;21.20;99.90
6146;DHT22;3104;50.348;7.620;2022-08-19T08:14:59;21.30;99.90
6146;DHT22;3104;50.348;7.620;2022-08-19T08:17:30;21.20;99.90
6146;DHT22;3104;50.348;7.620;2022-08-19T08:19:57;21.20;99.90
6146;DHT22;3104;50.348;7.620;2022-08-19T08:22:23;21.40;99.90
6146;DHT22;3104;50.348;7.620;2022-08-19T08:25:18;21.60;99.90
6146;DHT22;3104;50.348;7.620;2022-08-19T08:27:46;21.70;99.90
6146;DHT22;3104;50.348;7.620;2022-08-19T08:30:15;21.50;99.90
6146;DHT22;3104;50.348;7.620;2022-08-19T08:32:41;21.60;99.90
6146;DHT22;3104;50.348;7.620;2022-08-19T08:35:10;21.80;99.90
6146;DHT22;3104;50.348;7.620;2022-08-19T08:37:36;22.40;99.90
6146;DHT22;3104;50.348;7.620;2022-08-19T08:40:17;22.70;99.90
6146;DHT22;3104;50.348;7.620;2022-08-19T08:42:53;22.80;99.90
6146;DHT22;3104;50.348;7.620;2022-08-19T08:45:20;23.00;99.90
6146;DHT22;3104;50.348;7.620;2022-08-19T08:47:49;23.40;99.90
6146;DHT22;3104;50.348;7.620;2022-08-19T08:50:44;23.60;99.90
6146;DHT22;3104;50.348;7.620;2022-08-19T08:53:14;23.80;99.90
6146;DHT22;3104;50.348;7.620;2022-08-19T08:55:41;24.10;99.90
6146;DHT22;3104;50.348;7.620;2022-08-19T08:58:22;24.50;99.90
6146;DHT22;3104;50.348;7.620;2022-08-19T09:00:49;24.90;99.90
6146;DHT22;3104;50.348;7.620;2022-08-19T09:03:26;24.00;99.90
6146;DHT22;3104;50.348;7.620;2022-08-19T09:06:22;24.40;99.90
6146;DHT22;3104;50.348;7.620;2022-08-19T09:09:04;24.50;99.90
6146;DHT22;3104;50.348;7.620;2022-08-19T09:11:43;25.00;99.90
6146;DHT22;3104;50.348;7.620;2022-08-19T09:17:17;26.00;99.90
6146;DHT22;3104;50.348;7.620;2022-08-19T09:19:57;26.10;99.90
6146;DHT22;3104;50.348;7.620;2022-08-19T09:22:23;26.50;99.90
6146;DHT22;3104;50.348;7.620;2022-08-19T09:24:50;26.50;99.90
6146;DHT22;3104;50.348;7.620;2022-08-19T09:27:18;26.30;99.90
6146;DHT22;3104;50.348;7.620;2022-08-19T09:29:44;26.40;99.90
6146;DHT22;3104;50.348;7.620;2022-08-19T09:32:09;26.20;99.90
6146;DHT22;3104;50.348;7.620;2022-08-19T09:34:35;26.00;99.90
6146;DHT22;3104;50.348;7.620;2022-08-19T09:37:01;26.50;99.90
6146;DHT22;3104;50.348;7.620;2022-08-19T09:39:28;27.00;99.90
6146;DHT22;3104;50.348;7.620;2022-08-19T09:41:56;27.40;99.90
6146;DHT22;3104;50.348;7.620;2022-08-19T09:44:21;27.30;99.90
6146;DHT22;3104;50.348;7.620;2022-08-19T09:46:47;27.00;99.90
6146;DHT22;3104;50.348;7.620;2022-08-19T09:49:13;26.50;99.90
6146;DHT22;3104;50.348;7.620;2022-08-19T09:51:38;27.00;99.90
6146;DHT22;3104;50.348;7.620;2022-08-19T09:54:04;27.30;99.90
6146;DHT22;3104;50.348;7.620;2022-08-19T09:56:30;27.40;99.90
6146;DHT22;3104;50.348;7.620;2022-08-19T09:59:00;27.80;99.90
6146;DHT22;3104;50.348;7.620;2022-08-19T10:01:28;28.10;99.90
6146;DHT22;3104;50.348;7.620;2022-08-19T10:03:56;27.50;99.90
6146;DHT22;3104;50.348;7.620;2022-08-19T10:06:24;27.70;99.90
6146;DHT22;3104;50.348;7.620;2022-08-19T10:08:51;27.80;99.90
6146;DHT22;3104;50.348;7.620;2022-08-19T10:11:19;27.80;99.90
6146;DHT22;3104;50.348;7.620;2022-08-19T10:13:46;27.60;99.90
6146;DHT22;3104;50.348;7.620;2022-08-19T10:16:15;27.80;99.90
6146;DHT22;3104;50.348;7.620;2022-08-19T10:18:42;28.30;99.90
6146;DHT22;3104;50.348;7.620;2022-08-19T10:21:19;27.90;99.90
6146;DHT22;3104;50.348;7.620;2022-08-19T10:23:48;26.90;99.90
6146;DHT22;3104;50.348;7.620;2022-08-19T10:26:18;26.80;99.90
6146;DHT22;3104;50.348;7.620;2022-08-19T10:28:45;26.90;99.90
6146;DHT22;3104;50.348;7.620;2022-08-19T10:31:16;26.80;99.90
6146;DHT22;3104;50.348;7.620;2022-08-19T10:33:43;26.90;99.90
6146;DHT22;3104;50.348;7.620;2022-08-19T10:36:20;27.10;99.90
6146;DHT22;3104;50.348;7.620;2022-08-19T10:38:50;27.80;99.90
6146;DHT22;3104;50.348;7.620;2022-08-19T10:41:21;28.30;99.90
6146;DHT22;3104;50.348;7.620;2022-08-19T10:43:50;28.30;99.90
6146;DHT22;3104;50.348;7.620;2022-08-19T10:46:17;27.30;99.90
6146;DHT22;3104;50.348;7.620;2022-08-19T10:48:44;27.40;99.90
6146;DHT22;3104;50.348;7.620;2022-08-19T10:51:11;27.50;99.90
6146;DHT22;3104;50.348;7.620;2022-08-19T10:53:55;27.50;99.90
6146;DHT22;3104;50.348;7.620;2022-08-19T10:56:22;26.80;99.90
6146;DHT22;3104;50.348;7.620;2022-08-19T10:59:06;26.60;99.90
6146;DHT22;3104;50.348;7.620;2022-08-19T11:01:33;27.50;99.90
6146;DHT22;3104;50.348;7.620;2022-08-19T11:04:01;27.40;99.90
6146;DHT22;3104;50.348;7.620;2022-08-19T11:06:27;26.80;99.90
6146;DHT22;3104;50.348;7.620;2022-08-19T11:08:54;26.50;99.90
6146;DHT22;3104;50.348;7.620;2022-08-19T11:11:20;26.90;99.90
6146;DHT22;3104;50.348;7.620;2022-08-19T11:13:47;27.40;99.90
6146;DHT22;3104;50.348;7.620;2022-08-19T11:16:25;28.20;99.90
6146;DHT22;3104;50.348;7.620;2022-08-19T11:18:54;27.80;99.90
6146;DHT22;3104;50.348;7.620;2022-08-19T11:21:23;27.80;99.90
6146;DHT22;3104;50.348;7.620;2022-08-19T11:23:52;28.30;99.90
6146;DHT22;3104;50.348;7.620;2022-08-19T11:26:19;28.40;99.90
6146;DHT22;3104;50.348;7.620;2022-08-19T11:28:45;27.40;99.90
6146;DHT22;3104;50.348;7.620;2022-08-19T11:31:16;27.30;99.90
6146;DHT22;3104;50.348;7.620;2022-08-19T11:33:42;27.90;99.90
6146;DHT22;3104;50.348;7.620;2022-08-19T11:36:08;28.00;99.90
6146;DHT22;3104;50.348;7.620;2022-08-19T11:38:35;28.10;99.90
6146;DHT22;3104;50.348;7.620;2022-08-19T11:41:04;27.10;99.90
6146;DHT22;3104;50.348;7.620;2022-08-19T11:43:30;27.40;99.90
6146;DHT22;3104;50.348;7.620;2022-08-19T11:45:57;28.20;99.20
6146;DHT22;3104;50.348;7.620;2022-08-19T11:48:23;28.50;99.10
6146;DHT22;3104;50.348;7.620;2022-08-19T11:50:51;28.80;98.40
6146;DHT22;3104;50.348;7.620;2022-08-19T11:53:17;29.50;98.40
6146;DHT22;3104;50.348;7.620;2022-08-19T11:55:44;28.70;99.50
6146;DHT22;3104;50.348;7.620;2022-08-19T11:58:12;28.30;98.40
6146;DHT22;3104;50.348;7.620;2022-08-19T12:00:38;28.50;98.60
6146;DHT22;3104;50.348;7.620;2022-08-19T12:03:04;28.70;98.00
6146;DHT22;3104;50.348;7.620;2022-08-19T12:05:30;28.10;98.50
6146;DHT22;3104;50.348;7.620;2022-08-19T12:07:55;28.50;97.90
6146;DHT22;3104;50.348;7.620;2022-08-19T12:10:21;28.80;97.60
6146;DHT22;3104;50.348;7.620;2022-08-19T12:12:47;28.90;97.30
6146;DHT22;3104;50.348;7.620;2022-08-19T12:15:13;28.70;97.30
6146;DHT22;3104;50.348;7.620;2022-08-19T12:17:40;28.30;97.30
6146;DHT22;3104;50.348;7.620;2022-08-19T12:20:08;28.20;98.00
6146;DHT22;3104;50.348;7.620;2022-08-19T12:22:38;28.20;98.90
6146;DHT22;3104;50.348;7.620;2022-08-19T12:25:05;27.90;99.90
6146;DHT22;3104;50.348;7.620;2022-08-19T12:27:31;27.40;99.90
6146;DHT22;3104;50.348;7.620;2022-08-19T12:29:56;27.20;99.90
6146;DHT22;3104;50.348;7.620;2022-08-19T12:32:22;27.30;99.90
6146;DHT22;3104;50.348;7.620;2022-08-19T12:34:50;28.30;97.10
6146;DHT22;3104;50.348;7.620;2022-08-19T12:37:16;29.30;94.90
6146;DHT22;3104;50.348;7.620;2022-08-19T12:39:42;29.50;94.50
6146;DHT22;3104;50.348;7.620;2022-08-19T12:42:10;29.00;95.30
6146;DHT22;3104;50.348;7.620;2022-08-19T12:44:38;29.40;95.50
6146;DHT22;3104;50.348;7.620;2022-08-19T12:47:05;28.80;95.70
6146;DHT22;3104;50.348;7.620;2022-08-19T12:49:33;28.80;96.20
6146;DHT22;3104;50.348;7.620;2022-08-19T12:52:03;29.00;95.90
6146;DHT22;3104;50.348;7.620;2022-08-19T12:54:29;29.10;95.70
6146;DHT22;3104;50.348;7.620;2022-08-19T12:56:59;28.30;96.20
6146;DHT22;3104;50.348;7.620;2022-08-19T12:59:25;28.60;96.30
6146;DHT22;3104;50.348;7.620;2022-08-19T13:01:51;29.20;95.20
6146;DHT22;3104;50.348;7.620;2022-08-19T13:04:17;29.00;95.40
6146;DHT22;3104;50.348;7.620;2022-08-19T13:06:43;28.80;95.10
6146;DHT22;3104;50.348;7.620;2022-08-19T13:09:09;29.10;95.00
6146;DHT22;3104;50.348;7.620;2022-08-19T13:11:35;29.10;94.60
6146;DHT22;3104;50.348;7.620;2022-08-19T13:14:02;28.90;95.20
6146;DHT22;3104;50.348;7.620;2022-08-19T13:16:28;29.40;95.10
6146;DHT22;3104;50.348;7.620;2022-08-19T13:18:54;28.70;94.70
6146;DHT22;3104;50.348;7.620;2022-08-19T13:21:23;28.70;94.80
6146;DHT22;3104;50.348;7.620;2022-08-19T13:23:49;28.90;95.20
6146;DHT22;3104;50.348;7.620;2022-08-19T13:26:16;29.50;94.10
6146;DHT22;3104;50.348;7.620;2022-08-19T13:28:42;29.40;94.00
6146;DHT22;3104;50.348;7.620;2022-08-19T13:31:30;28.90;94.00
6146;DHT22;3104;50.348;7.620;2022-08-19T13:34:16;28.60;94.60
6146;DHT22;3104;50.348;7.620;2022-08-19T13:36:42;28.90;94.60
6146;DHT22;3104;50.348;7.620;2022-08-19T13:39:09;29.40;94.70
6146;DHT22;3104;50.348;7.620;2022-08-19T13:41:36;30.10;93.70
6146;DHT22;3104;50.348;7.620;2022-08-19T13:44:03;29.70;94.00
6146;DHT22;3104;50.348;7.620;2022-08-19T13:46:29;29.10;93.90
6146;DHT22;3104;50.348;7.620;2022-08-19T13:48:55;29.40;93.40
6146;DHT22;3104;50.348;7.620;2022-08-19T13:51:22;29.70;93.60
6146;DHT22;3104;50.348;7.620;2022-08-19T13:53:48;29.40;93.10
6146;DHT22;3104;50.348;7.620;2022-08-19T13:56:16;29.10;93.30
6146;DHT22;3104;50.348;7.620;2022-08-19T13:58:42;29.20;93.60
6146;DHT22;3104;50.348;7.620;2022-08-19T14:01:08;29.30;93.00
6146;DHT22;3104;50.348;7.620;2022-08-19T14:03:34;29.40;93.20
6146;DHT22;3104;50.348;7.620;2022-08-19T14:06:00;28.80;93.90
6146;DHT22;3104;50.348;7.620;2022-08-19T14:08:26;28.40;94.40
6146;DHT22;3104;50.348;7.620;2022-08-19T14:10:56;28.20;94.60
6146;DHT22;3104;50.348;7.620;2022-08-19T14:13:24;28.60;94.10
6146;DHT22;3104;50.348;7.620;2022-08-19T14:15:51;28.40;93.90
6146;DHT22;3104;50.348;7.620;2022-08-19T14:18:18;28.60;93.20
6146;DHT22;3104;50.348;7.620;2022-08-19T14:20:44;28.60;93.10
6146;DHT22;3104;50.348;7.620;2022-08-19T14:23:10;28.30;93.80
6146;DHT22;3104;50.348;7.620;2022-08-19T14:25:39;28.30;93.90
6146;DHT22;3104;50.348;7.620;2022-08-19T14:28:04;28.40;93.10
6146;DHT22;3104;50.348;7.620;2022-08-19T14:30:32;28.00;93.50
6146;DHT22;3104;50.348;7.620;2022-08-19T14:33:00;28.40;94.00
6146;DHT22;3104;50.348;7.620;2022-08-19T14:35:27;28.40;92.70
6146;DHT22;3104;50.348;7.620;2022-08-19T14:37:54;28.30;93.30
6146;DHT22;3104;50.348;7.620;2022-08-19T14:40:21;28.80;92.90
6146;DHT22;3104;50.348;7.620;2022-08-19T14:42:47;29.10;92.10
6146;DHT22;3104;50.348;7.620;2022-08-19T14:45:13;28.80;91.80
6146;DHT22;3104;50.348;7.620;2022-08-19T14:47:39;28.70;91.90
6146;DHT22;3104;50.348;7.620;2022-08-19T14:50:10;28.50;92.40
6146;DHT22;3104;50.348;7.620;2022-08-19T14:52:36;28.40;92.90
6146;DHT22;3104;50.348;7.620;2022-08-19T14:55:03;28.50;92.70
6146;DHT22;3104;50.348;7.620;2022-08-19T14:57:29;28.90;92.00
6146;DHT22;3104;50.348;7.620;2022-08-19T14:59:55;28.90;92.10
6146;DHT22;3104;50.348;7.620;2022-08-19T15:02:22;28.60;93.20
6146;DHT22;3104;50.348;7.620;2022-08-19T15:04:48;28.60;93.10
6146;DHT22;3104;50.348;7.620;2022-08-19T15:07:13;28.60;92.70
6146;DHT22;3104;50.348;7.620;2022-08-19T15:09:39;28.60;93.20
6146;DHT22;3104;50.348;7.620;2022-08-19T15:12:05;28.40;93.00
6146;DHT22;3104;50.348;7.620;2022-08-19T15:14:30;28.80;93.00
6146;DHT22;3104;50.348;7.620;2022-08-19T15:17:01;29.10;92.80
6146;DHT22;3104;50.348;7.620;2022-08-19T15:19:28;29.30;91.80
6146;DHT22;3104;50.348;7.620;2022-08-19T15:21:54;29.40;91.70
6146;DHT22;3104;50.348;7.620;2022-08-19T15:24:20;29.30;92.20
6146;DHT22;3104;50.348;7.620;2022-08-19T15:26:46;29.00;92.60
6146;DHT22;3104;50.348;7.620;2022-08-19T15:29:11;28.80;92.80
6146;DHT22;3104;50.348;7.620;2022-08-19T15:31:42;28.60;92.50
6146;DHT22;3104;50.348;7.620;2022-08-19T15:34:07;28.20;92.90
6146;DHT22;3104;50.348;7.620;2022-08-19T15:36:33;28.00;92.90
6146;DHT22;3104;50.348;7.620;2022-08-19T15:39:00;27.90;93.60
6146;DHT22;3104;50.348;7.620;2022-08-19T15:41:28;28.20;93.50
6146;DHT22;3104;50.348;7.620;2022-08-19T15:44:02;28.30;93.10
6146;DHT22;3104;50.348;7.620;2022-08-19T15:46:31;28.20;93.50
6146;DHT22;3104;50.348;7.620;2022-08-19T15:48:57;28.70;93.10
6146;DHT22;3104;50.348;7.620;2022-08-19T15:51:25;29.20;92.60
6146;DHT22;3104;50.348;7.620;2022-08-19T15:53:51;29.20;92.60
6146;DHT22;3104;50.348;7.620;2022-08-19T15:56:17;28.90;92.80
6146;DHT22;3104;50.348;7.620;2022-08-19T15:58:43;28.40;93.00
6146;DHT22;3104;50.348;7.620;2022-08-19T16:01:28;28.30;93.30
6146;DHT22;3104;50.348;7.620;2022-08-19T16:04:12;28.10;93.70
6146;DHT22;3104;50.348;7.620;2022-08-19T16:06:58;27.80;93.80
6146;DHT22;3104;50.348;7.620;2022-08-19T16:09:28;27.70;93.50
6146;DHT22;3104;50.348;7.620;2022-08-19T16:11:59;27.50;93.20